createdAt,value
2023-01-15T00:00:06.074Z,3.49
2023-01-15T00:02:33.015Z,3.49
2023-01-15T00:05:03.121Z,3.48
2023-01-15T00:07:30.943Z,3.47
2023-01-15T00:09:59.218Z,3.45
2023-01-15T00:12:26.117Z,3.45
2023-01-15T00:14:53.222Z,3.44
2023-01-15T00:17:20.204Z,3.42
2023-01-15T00:19:47.395Z,3.39
2023-01-15T00:22:14.475Z,3.35
2023-01-15T00:24:59.841Z,3.33
2023-01-15T00:27:38.980Z,3.33
2023-01-15T00:30:08.224Z,3.35
2023-01-15T00:32:37.271Z,3.35
2023-01-15T00:35:05.051Z,3.36
2023-01-15T00:37:32.197Z,3.36
2023-01-15T00:39:59.716Z,3.34
2023-01-15T00:42:29.270Z,3.36
2023-01-15T00:44:56.324Z,3.35
2023-01-15T00:47:23.584Z,3.34
2023-01-15T00:49:51.766Z,3.33
2023-01-15T00:52:18.656Z,3.32
2023-01-15T00:54:45.569Z,3.32
2023-01-15T00:57:12.514Z,3.32
2023-01-15T00:59:39.401Z,3.34
2023-01-15T01:02:06.485Z,3.37
2023-01-15T01:04:33.320Z,3.37
2023-01-15T01:07:00.216Z,3.36
2023-01-15T01:09:27.101Z,3.35
2023-01-15T01:11:54.011Z,3.34
2023-01-15T01:14:22.139Z,3.34
2023-01-15T01:16:52.116Z,3.34
2023-01-15T01:19:20.299Z,3.34
2023-01-15T01:21:48.883Z,3.34
2023-01-15T01:24:18.600Z,3.33
2023-01-15T01:26:46.663Z,3.31
2023-01-15T01:29:19.650Z,3.30
2023-01-15T01:31:47.606Z,3.29
2023-01-15T01:34:15.362Z,3.29
2023-01-15T01:36:44.594Z,3.30
2023-01-15T01:39:17.272Z,3.32
2023-01-15T01:41:45.361Z,3.34
2023-01-15T01:44:34.879Z,3.32
2023-01-15T01:47:23.047Z,3.31
2023-01-15T01:49:53.937Z,3.31
2023-01-15T01:52:27.878Z,3.31
2023-01-15T01:54:55.572Z,3.30
2023-01-15T01:57:23.533Z,3.26
2023-01-15T01:59:51.236Z,3.25
2023-01-15T02:02:22.288Z,3.22
2023-01-15T02:04:49.927Z,3.19
2023-01-15T02:07:17.753Z,3.16
2023-01-15T02:09:44.800Z,3.14
2023-01-15T02:12:25.301Z,3.11
2023-01-15T02:15:09.910Z,3.09
2023-01-15T02:18:15.913Z,3.05
2023-01-15T02:20:50.929Z,2.99
2023-01-15T02:23:53.508Z,2.96
2023-01-15T02:26:58.441Z,2.92
2023-01-15T02:29:52.938Z,2.87
2023-01-15T02:32:44.954Z,2.82
2023-01-15T02:35:22.156Z,2.79
2023-01-15T02:37:54.677Z,2.78
2023-01-15T02:40:25.796Z,2.76
2023-01-15T02:42:54.897Z,2.73
2023-01-15T02:45:28.122Z,2.70
2023-01-15T02:48:06.216Z,2.67
2023-01-15T02:50:39.188Z,2.65
2023-01-15T02:53:12.708Z,2.65
2023-01-15T02:55:44.589Z,2.67
2023-01-15T02:58:16.749Z,2.69
2023-01-15T03:00:48.006Z,2.73
2023-01-15T03:03:33.054Z,2.75
2023-01-15T03:06:18.522Z,2.72
2023-01-15T03:08:46.605Z,2.66
2023-01-15T03:11:16.088Z,2.62
2023-01-15T03:13:55.145Z,2.58
2023-01-15T03:17:05.953Z,2.55
2023-01-15T03:19:43.941Z,2.54
2023-01-15T03:22:23.075Z,2.57
2023-01-15T03:24:55.445Z,2.57
2023-01-15T03:27:23.007Z,2.56
2023-01-15T03:30:07.916Z,2.55
2023-01-15T03:32:35.845Z,2.54
2023-01-15T03:35:26.256Z,2.54
2023-01-15T03:37:53.485Z,2.53
2023-01-15T03:40:22.261Z,2.53
2023-01-15T03:43:17.070Z,2.54
2023-01-15T03:45:50.812Z,2.56
2023-01-15T03:48:31.326Z,2.59
2023-01-15T03:51:21.201Z,2.60
2023-01-15T03:53:54.755Z,2.60
2023-01-15T03:56:39.473Z,2.60
2023-01-15T03:59:22.081Z,2.59
2023-01-15T04:01:54.631Z,2.57
2023-01-15T04:04:26.350Z,2.57
2023-01-15T04:06:56.104Z,2.59
2023-01-15T04:09:24.203Z,2.60
2023-01-15T04:11:54.153Z,2.63
2023-01-15T04:14:21.065Z,2.66
2023-01-15T04:16:51.597Z,2.67
2023-01-15T04:19:18.647Z,2.69
2023-01-15T04:21:52.454Z,2.71
2023-01-15T04:24:19.357Z,2.71
2023-01-15T04:26:46.359Z,2.75
2023-01-15T04:29:13.216Z,2.77
2023-01-15T04:31:40.378Z,2.81
2023-01-15T04:34:07.822Z,2.83
2023-01-15T04:36:37.335Z,2.86
2023-01-15T04:39:05.787Z,2.90
2023-01-15T04:41:51.293Z,2.94
2023-01-15T04:44:18.268Z,2.95
2023-01-15T04:46:47.864Z,2.97
2023-01-15T04:49:18.794Z,2.98
2023-01-15T04:51:46.365Z,3.01
2023-01-15T04:54:16.077Z,3.04
2023-01-15T04:56:46.815Z,3.04
2023-01-15T04:59:15.191Z,3.06
2023-01-15T05:02:01.814Z,3.08
2023-01-15T05:04:29.150Z,3.10
2023-01-15T05:06:58.561Z,3.13
2023-01-15T05:09:25.525Z,3.16
2023-01-15T05:11:52.459Z,3.18
2023-01-15T05:14:19.263Z,3.21
2023-01-15T05:16:46.262Z,3.23
2023-01-15T05:19:13.314Z,3.22
2023-01-15T05:21:43.054Z,3.19
2023-01-15T05:24:15.727Z,3.16
2023-01-15T05:26:43.595Z,3.17
2023-01-15T05:29:11.957Z,3.17
2023-01-15T05:31:39.735Z,3.16
2023-01-15T05:34:06.642Z,3.12
2023-01-15T05:36:33.843Z,3.10
2023-01-15T05:39:02.510Z,3.09
2023-01-15T05:41:49.306Z,3.08
2023-01-15T05:44:28.362Z,3.06
2023-01-15T05:46:58.505Z,3.06
2023-01-15T05:49:28.392Z,3.09
2023-01-15T05:51:55.568Z,3.13
2023-01-15T05:54:25.469Z,3.17
2023-01-15T05:56:52.504Z,3.22
2023-01-15T05:59:22.234Z,3.27
2023-01-15T06:01:49.302Z,3.34
2023-01-15T06:04:21.040Z,3.43
2023-01-15T06:06:52.705Z,3.52
2023-01-15T06:09:20.678Z,3.59
2023-01-15T06:11:47.737Z,3.67
2023-01-15T06:14:15.403Z,3.77
2023-01-15T06:16:42.350Z,3.86
2023-01-15T06:19:11.242Z,3.91
2023-01-15T06:21:38.301Z,3.96
2023-01-15T06:24:05.872Z,4.02
2023-01-15T06:26:32.818Z,4.05
2023-01-15T06:28:59.767Z,4.08
2023-01-15T06:31:29.540Z,4.12
2023-01-15T06:33:56.652Z,4.16
2023-01-15T06:36:25.145Z,4.20
2023-01-15T06:38:52.077Z,4.22
2023-01-15T06:41:46.544Z,4.22
2023-01-15T06:44:35.817Z,4.23
2023-01-15T06:47:24.037Z,4.26
2023-01-15T06:49:54.765Z,4.27
2023-01-15T06:52:23.328Z,4.28
2023-01-15T06:54:50.435Z,4.30
2023-01-15T06:57:19.169Z,4.32
2023-01-15T06:59:46.812Z,4.34
2023-01-15T07:02:14.042Z,4.37
2023-01-15T07:04:40.983Z,4.40
2023-01-15T07:07:07.943Z,4.43
2023-01-15T07:09:34.990Z,4.47
2023-01-15T07:12:02.048Z,4.46
2023-01-15T07:14:28.897Z,4.43
2023-01-15T07:16:59.407Z,4.41
2023-01-15T07:19:27.393Z,4.39
2023-01-15T07:21:55.165Z,4.37
2023-01-15T07:24:22.129Z,4.34
2023-01-15T07:26:49.068Z,4.31
2023-01-15T07:29:15.997Z,4.30
2023-01-15T07:31:43.244Z,4.31
2023-01-15T07:34:13.359Z,4.29
2023-01-15T07:36:40.464Z,4.27
2023-01-15T07:39:09.248Z,4.23
2023-01-15T07:41:55.442Z,4.17
2023-01-15T07:44:41.625Z,4.02
2023-01-15T07:47:48.583Z,3.69
2023-01-15T07:50:20.558Z,3.27
2023-01-15T07:52:47.510Z,3.05
2023-01-15T07:55:14.871Z,2.97
2023-01-15T07:57:42.938Z,2.90
2023-01-15T08:00:14.888Z,2.85
2023-01-15T08:02:42.623Z,2.84
2023-01-15T08:05:11.756Z,2.83
2023-01-15T08:07:40.877Z,2.83
2023-01-15T08:10:12.978Z,2.84
2023-01-15T08:12:58.936Z,2.87
2023-01-15T08:15:26.791Z,2.90
2023-01-15T08:17:54.151Z,2.94
2023-01-15T08:20:24.622Z,2.96
2023-01-15T08:22:51.841Z,2.99
2023-01-15T08:25:21.798Z,3.02
2023-01-15T08:27:49.056Z,3.06
2023-01-15T08:30:18.951Z,3.10
2023-01-15T08:32:45.906Z,3.13
2023-01-15T08:35:13.686Z,3.16
2023-01-15T08:37:42.043Z,3.17
2023-01-15T08:40:11.303Z,3.22
2023-01-15T08:42:38.811Z,3.25
2023-01-15T08:45:06.285Z,3.28
2023-01-15T08:47:33.957Z,3.31
2023-01-15T08:50:01.004Z,3.36
2023-01-15T08:52:28.042Z,3.39
2023-01-15T08:54:54.947Z,3.44
2023-01-15T08:57:21.847Z,3.46
2023-01-15T08:59:48.899Z,3.50
2023-01-15T09:02:16.460Z,3.55
2023-01-15T09:04:43.593Z,3.61
2023-01-15T09:07:11.260Z,3.67
2023-01-15T09:09:38.566Z,3.74
2023-01-15T09:12:05.692Z,3.83
2023-01-15T09:14:56.891Z,3.94
2023-01-15T09:17:20.061Z,4.06
2023-01-15T09:19:47.114Z,4.16
2023-01-15T09:22:14.043Z,4.28
2023-01-15T09:24:40.916Z,4.40
2023-01-15T09:27:07.958Z,4.51
2023-01-15T09:29:34.919Z,4.58
2023-01-15T09:32:02.801Z,4.65
2023-01-15T09:34:29.849Z,4.70
2023-01-15T09:36:56.790Z,4.71
2023-01-15T09:39:23.751Z,4.69
2023-01-15T09:42:13.928Z,4.66
2023-01-15T09:44:53.253Z,4.59
2023-01-15T09:47:36.693Z,4.46
2023-01-15T09:50:22.550Z,4.24
2023-01-15T09:53:03.664Z,4.02
2023-01-15T09:55:34.560Z,3.90
2023-01-15T09:58:05.887Z,3.78
2023-01-15T10:00:40.324Z,3.67
2023-01-15T10:03:32.100Z,3.61
2023-01-15T10:06:14.336Z,3.53
2023-01-15T10:08:48.265Z,3.50
2023-01-15T10:11:15.267Z,3.46
2023-01-15T10:13:45.763Z,3.43
2023-01-15T10:16:19.740Z,3.44
2023-01-15T10:18:47.001Z,3.44
2023-01-15T10:21:44.812Z,3.44
2023-01-15T10:24:16.854Z,3.42
2023-01-15T10:26:44.779Z,3.41
2023-01-15T10:29:14.589Z,3.40
2023-01-15T10:31:51.667Z,3.40
2023-01-15T10:34:21.670Z,3.40
2023-01-15T10:37:19.806Z,3.42
2023-01-15T10:40:30.712Z,3.42
2023-01-15T10:43:30.340Z,3.43
2023-01-15T10:46:01.057Z,3.45
2023-01-15T10:48:38.635Z,3.49
2023-01-15T10:51:41.546Z,3.50
2023-01-15T10:54:14.385Z,3.51
2023-01-15T10:56:53.116Z,3.51
2023-01-15T10:59:51.483Z,3.53
2023-01-15T11:02:35.402Z,3.53
2023-01-15T11:05:04.452Z,3.52
2023-01-15T11:07:52.991Z,3.52
2023-01-15T11:10:26.392Z,3.52
2023-01-15T11:13:45.093Z,3.53
2023-01-15T11:16:44.404Z,3.53
2023-01-15T11:19:37.739Z,3.53
2023-01-15T11:22:10.546Z,3.52
2023-01-15T11:24:58.740Z,3.52
2023-01-15T11:27:33.013Z,3.54
2023-01-15T11:30:02.309Z,3.55
2023-01-15T11:32:32.235Z,3.55
2023-01-15T11:35:00.593Z,3.55
2023-01-15T11:37:28.816Z,3.56
2023-01-15T11:40:06.189Z,3.54
2023-01-15T11:42:52.163Z,3.54
2023-01-15T11:45:40.065Z,3.54
2023-01-15T11:48:37.804Z,3.54
2023-01-15T11:51:17.853Z,3.56
2023-01-15T11:53:48.947Z,3.59
2023-01-15T11:56:23.572Z,3.60
2023-01-15T11:58:54.722Z,3.61
2023-01-15T12:01:58.393Z,3.62
2023-01-15T12:04:56.211Z,3.64
2023-01-15T12:07:26.102Z,3.64
2023-01-15T12:10:14.313Z,3.65
2023-01-15T12:13:03.762Z,3.65
2023-01-15T12:16:02.360Z,3.66
2023-01-15T12:19:07.255Z,3.70
2023-01-15T12:22:09.688Z,3.71
2023-01-15T12:24:55.082Z,3.73
2023-01-15T12:27:48.176Z,3.73
2023-01-15T12:30:41.341Z,3.75
2023-01-15T12:33:21.229Z,3.77
2023-01-15T12:36:01.275Z,3.78
2023-01-15T12:38:49.833Z,3.77
2023-01-15T12:41:53.025Z,3.79
2023-01-15T12:45:04.285Z,3.79
2023-01-15T12:47:41.409Z,3.80
2023-01-15T12:50:32.847Z,3.82
2023-01-15T12:53:21.208Z,3.84
2023-01-15T12:55:51.107Z,3.86
2023-01-15T12:58:27.567Z,3.87
2023-01-15T13:01:07.400Z,3.87
2023-01-15T13:03:57.622Z,3.88
2023-01-15T13:06:27.326Z,3.89
2023-01-15T13:09:02.738Z,3.91
2023-01-15T13:11:30.381Z,3.92
2023-01-15T13:14:00.362Z,3.93
2023-01-15T13:16:30.860Z,3.93
2023-01-15T13:19:01.196Z,3.93
2023-01-15T13:21:29.635Z,3.94
2023-01-15T13:24:06.176Z,3.95
2023-01-15T13:26:45.719Z,3.96
2023-01-15T13:29:26.771Z,3.98
2023-01-15T13:31:59.564Z,3.99
2023-01-15T13:34:35.501Z,4.00
2023-01-15T13:37:12.642Z,4.02
2023-01-15T13:39:42.502Z,4.04
2023-01-15T13:42:32.759Z,4.07
2023-01-15T13:45:02.289Z,4.07
2023-01-15T13:47:31.603Z,4.08
2023-01-15T13:50:04.916Z,4.09
2023-01-15T13:52:33.180Z,4.10
2023-01-15T13:55:02.378Z,4.11
2023-01-15T13:57:34.646Z,4.13
2023-01-15T14:00:02.979Z,4.14
2023-01-15T14:02:39.458Z,4.15
2023-01-15T14:05:24.768Z,4.16
2023-01-15T14:07:51.726Z,4.16
2023-01-15T14:10:18.584Z,4.17
2023-01-15T14:12:45.376Z,4.18
2023-01-15T14:15:27.118Z,4.19
2023-01-15T14:18:12.923Z,4.20
2023-01-15T14:20:58.493Z,4.20
2023-01-15T14:23:31.732Z,4.22
2023-01-15T14:26:17.739Z,4.21
2023-01-15T14:28:50.723Z,4.22
2023-01-15T14:31:36.273Z,4.24
2023-01-15T14:34:17.470Z,4.23
2023-01-15T14:36:51.092Z,4.24
2023-01-15T14:39:32.769Z,4.25
2023-01-15T14:42:26.936Z,4.25
2023-01-15T14:45:06.675Z,4.26
2023-01-15T14:47:48.776Z,4.26
2023-01-15T14:50:24.579Z,4.27
2023-01-15T14:52:53.011Z,4.29
2023-01-15T14:55:20.902Z,4.29
2023-01-15T14:58:05.971Z,4.31
2023-01-15T15:00:36.172Z,4.33
2023-01-15T15:03:05.005Z,4.36
2023-01-15T15:05:34.249Z,4.39
2023-01-15T15:08:01.318Z,4.41
2023-01-15T15:10:37.995Z,4.44
2023-01-15T15:13:05.451Z,4.47
2023-01-15T15:15:41.210Z,4.52
2023-01-15T15:18:14.208Z,4.55
2023-01-15T15:20:48.002Z,4.58
2023-01-15T15:23:26.907Z,4.63
2023-01-15T15:25:58.294Z,4.66
2023-01-15T15:28:25.530Z,4.70
2023-01-15T15:30:52.917Z,4.75
2023-01-15T15:33:21.895Z,4.79
2023-01-15T15:35:57.852Z,4.82
2023-01-15T15:38:25.526Z,4.86
2023-01-15T15:40:55.143Z,4.89
2023-01-15T15:43:49.807Z,4.91
2023-01-15T15:46:45.960Z,4.92
2023-01-15T15:49:13.022Z,4.94
2023-01-15T15:51:46.066Z,4.96
2023-01-15T15:54:16.284Z,4.96
2023-01-15T15:56:46.007Z,4.96
2023-01-15T15:59:16.947Z,4.97
2023-01-15T16:01:44.696Z,4.99
2023-01-15T16:04:17.309Z,5.01
2023-01-15T16:06:44.255Z,5.03
2023-01-15T16:09:11.168Z,5.05
2023-01-15T16:11:39.173Z,5.07
2023-01-15T16:14:07.146Z,5.08
2023-01-15T16:16:34.833Z,5.11
2023-01-15T16:19:02.673Z,5.13
2023-01-15T16:21:33.936Z,5.14
2023-01-15T16:24:08.562Z,5.15
2023-01-15T16:26:38.691Z,5.16
2023-01-15T16:29:07.269Z,5.17
2023-01-15T16:31:35.518Z,5.18
2023-01-15T16:34:03.112Z,5.18
2023-01-15T16:36:38.809Z,5.17
2023-01-15T16:39:07.505Z,5.17
2023-01-15T16:41:39.313Z,5.19
2023-01-15T16:44:07.301Z,5.21
2023-01-15T16:46:36.297Z,5.23
2023-01-15T16:49:22.068Z,5.24
2023-01-15T16:51:52.402Z,5.22
2023-01-15T16:54:31.898Z,5.20
2023-01-15T16:57:19.245Z,5.19
2023-01-15T16:59:46.101Z,5.15
2023-01-15T17:02:15.032Z,5.09
2023-01-15T17:04:44.051Z,4.99
2023-01-15T17:07:14.006Z,4.90
2023-01-15T17:09:52.196Z,4.80
2023-01-15T17:12:25.939Z,4.65
2023-01-15T17:14:53.281Z,4.56
2023-01-15T17:17:23.009Z,4.51
2023-01-15T17:19:50.356Z,4.46
2023-01-15T17:22:24.362Z,4.42
2023-01-15T17:24:52.965Z,4.40
2023-01-15T17:27:20.258Z,4.37
2023-01-15T17:29:47.233Z,4.34
2023-01-15T17:32:16.163Z,4.32
2023-01-15T17:34:43.314Z,4.31
2023-01-15T17:37:10.162Z,4.31
2023-01-15T17:39:37.021Z,4.31
2023-01-15T17:42:10.714Z,4.31
2023-01-15T17:44:38.085Z,4.29
2023-01-15T17:47:04.988Z,4.27
2023-01-15T17:49:32.189Z,4.29
2023-01-15T17:51:59.542Z,4.29
2023-01-15T17:54:44.944Z,4.29
2023-01-15T17:57:30.285Z,4.30
2023-01-15T18:00:15.865Z,4.30
2023-01-15T18:03:02.376Z,4.30
2023-01-15T18:05:35.279Z,4.30
2023-01-15T18:08:04.448Z,4.30
2023-01-15T18:10:31.657Z,4.31
2023-01-15T18:12:58.553Z,4.32
2023-01-15T18:15:25.477Z,4.31
2023-01-15T18:17:52.451Z,4.32
2023-01-15T18:20:20.843Z,4.32
2023-01-15T18:22:47.987Z,4.34
2023-01-15T18:25:15.152Z,4.37
2023-01-15T18:27:43.601Z,4.39
2023-01-15T18:30:12.019Z,4.41
2023-01-15T18:32:42.523Z,4.44
2023-01-15T18:35:10.007Z,4.46
2023-01-15T18:37:36.862Z,4.48
2023-01-15T18:40:04.789Z,4.50
2023-01-15T18:42:51.033Z,4.52
2023-01-15T18:45:37.221Z,4.55
2023-01-15T18:48:04.576Z,4.56
2023-01-15T18:50:31.652Z,4.57
2023-01-15T18:52:58.685Z,4.58
2023-01-15T18:55:28.516Z,4.59
2023-01-15T18:57:56.261Z,4.59
2023-01-15T19:00:25.079Z,4.61
2023-01-15T19:02:52.726Z,4.61
2023-01-15T19:05:19.817Z,4.63
2023-01-15T19:07:47.675Z,4.64
2023-01-15T19:10:15.734Z,4.66
2023-01-15T19:12:44.508Z,4.67
2023-01-15T19:15:34.585Z,4.67
2023-01-15T19:18:20.475Z,4.68
2023-01-15T19:20:49.201Z,4.69
2023-01-15T19:23:16.740Z,4.70
2023-01-15T19:25:45.019Z,4.71
2023-01-15T19:28:15.810Z,4.72
2023-01-15T19:30:43.830Z,4.73
2023-01-15T19:33:11.182Z,4.74
2023-01-15T19:35:39.671Z,4.74
2023-01-15T19:38:08.885Z,4.75
2023-01-15T19:40:41.084Z,4.75
2023-01-15T19:43:26.832Z,4.75
2023-01-15T19:46:12.279Z,4.75
2023-01-15T19:48:58.204Z,4.76
2023-01-15T19:51:45.822Z,4.76
2023-01-15T19:54:13.393Z,4.78
2023-01-15T19:56:41.434Z,4.79
2023-01-15T19:59:08.386Z,4.86
2023-01-15T20:01:35.937Z,4.86
2023-01-15T20:04:02.810Z,4.83
2023-01-15T20:06:30.165Z,4.79
2023-01-15T20:08:57.109Z,4.84
2023-01-15T20:11:45.358Z,4.89
2023-01-15T20:14:12.405Z,4.91
2023-01-15T20:16:39.662Z,4.89
2023-01-15T20:19:06.851Z,4.82
2023-01-15T20:21:34.491Z,4.79
2023-01-15T20:24:02.165Z,4.75
2023-01-15T20:26:29.408Z,4.73
2023-01-15T20:28:56.595Z,4.69
2023-01-15T20:31:23.644Z,4.69
2023-01-15T20:33:50.558Z,4.72
2023-01-15T20:36:17.733Z,4.76
2023-01-15T20:38:44.976Z,4.77
2023-01-15T20:41:50.614Z,4.77
2023-01-15T20:44:36.709Z,4.78
2023-01-15T20:47:23.596Z,4.77
2023-01-15T20:49:51.607Z,4.76
2023-01-15T20:52:18.624Z,4.75
2023-01-15T20:54:45.473Z,4.74
2023-01-15T20:57:12.316Z,4.72
2023-01-15T20:59:39.279Z,4.71
2023-01-15T21:02:06.683Z,4.68
2023-01-15T21:04:34.131Z,4.66
2023-01-15T21:07:01.045Z,4.66
2023-01-15T21:09:30.117Z,4.65
2023-01-15T21:11:57.053Z,4.64
2023-01-15T21:14:24.371Z,4.61
2023-01-15T21:16:52.122Z,4.60
2023-01-15T21:19:19.104Z,4.60
2023-01-15T21:21:46.125Z,4.58
2023-01-15T21:24:12.982Z,4.58
2023-01-15T21:26:39.955Z,4.58
2023-01-15T21:29:06.875Z,4.56
2023-01-15T21:31:33.772Z,4.55
2023-01-15T21:34:00.776Z,4.52
2023-01-15T21:36:27.741Z,4.50
2023-01-15T21:38:55.096Z,4.49
2023-01-15T21:41:42.216Z,4.46
2023-01-15T21:44:30.146Z,4.43
2023-01-15T21:46:58.929Z,4.40
2023-01-15T21:49:26.182Z,4.37
2023-01-15T21:51:53.668Z,4.35
2023-01-15T21:54:20.815Z,4.34
2023-01-15T21:56:49.753Z,4.34
2023-01-15T21:59:17.670Z,4.32
2023-01-15T22:01:44.729Z,4.30
2023-01-15T22:04:11.879Z,4.29
2023-01-15T22:06:39.104Z,4.27
2023-01-15T22:09:05.883Z,4.25
2023-01-15T22:11:45.114Z,4.25
2023-01-15T22:14:16.465Z,4.25
2023-01-15T22:16:44.379Z,4.24
2023-01-15T22:19:15.175Z,4.24
2023-01-15T22:21:42.127Z,4.23
2023-01-15T22:24:09.219Z,4.22
2023-01-15T22:26:38.285Z,4.21
2023-01-15T22:29:05.121Z,4.19
2023-01-15T22:31:31.973Z,4.19
2023-01-15T22:33:59.756Z,4.18
2023-01-15T22:36:27.611Z,4.17
2023-01-15T22:38:55.003Z,4.16
2023-01-15T22:41:40.450Z,4.15
2023-01-15T22:44:07.928Z,4.13
2023-01-15T22:46:35.579Z,4.13
2023-01-15T22:49:03.033Z,4.12
2023-01-15T22:51:29.995Z,4.10
2023-01-15T22:53:57.352Z,4.08
2023-01-15T22:56:24.812Z,4.06
2023-01-15T22:58:55.454Z,4.04
2023-01-15T23:01:23.387Z,4.03
2023-01-15T23:03:50.476Z,4.02
2023-01-15T23:06:20.905Z,4.01
2023-01-15T23:08:47.953Z,4.01
2023-01-15T23:11:15.821Z,4.00
2023-01-15T23:13:43.185Z,3.99
2023-01-15T23:16:10.432Z,4.00
2023-01-15T23:18:37.699Z,3.99
2023-01-15T23:21:05.854Z,3.97
2023-01-15T23:23:32.936Z,3.97
2023-01-15T23:26:03.373Z,3.94
2023-01-15T23:28:30.412Z,3.92
2023-01-15T23:30:57.260Z,3.91
2023-01-15T23:33:26.055Z,3.90
2023-01-15T23:35:53.520Z,3.89
2023-01-15T23:38:21.289Z,3.88
2023-01-15T23:40:48.443Z,3.87
2023-01-15T23:43:34.734Z,3.86
2023-01-15T23:46:22.182Z,3.84
2023-01-15T23:48:49.009Z,3.83
2023-01-15T23:51:16.048Z,3.82
2023-01-15T23:53:42.765Z,3.80
2023-01-15T23:56:09.764Z,3.79
2023-01-15T23:58:36.699Z,3.78
